sensor_id;sensor_type;location;lat;lon;timestamp;pressure;altitude;pressure_sealevel;temperature;humidity
63808;BME280;49961;43.970;22.868;2023-02-19T00:00:36;101532.50;;;11.57;91.57
63808;BME280;49961;43.970;22.868;2023-02-19T00:01:40;101530.50;;;11.57;92.01
63808;BME280;49961;43.970;22.868;2023-02-19T00:02:40;101527.75;;;11.57;92.19
63808;BME280;49961;43.970;22.868;2023-02-19T00:03:41;101376.16;;;10.50;92.60
63808;BME280;49961;43.970;22.868;2023-02-19T00:04:42;101538.81;;;11.61;92.81
63808;BME280;49961;43.970;22.868;2023-02-19T00:05:43;101535.69;;;11.59;92.84
63808;BME280;49961;43.970;22.868;2023-02-19T00:06:44;101535.28;;;11.57;93.18
63808;BME280;49961;43.970;22.868;2023-02-19T00:07:45;101538.03;;;11.57;93.55
63808;BME280;49961;43.970;22.868;2023-02-19T00:08:45;101391.47;;;10.62;93.50
63808;BME280;49961;43.970;22.868;2023-02-19T00:09:46;101499.09;;;11.34;93.46
63808;BME280;49961;43.970;22.868;2023-02-19T00:10:46;101532.50;;;11.60;93.97
63808;BME280;49961;43.970;22.868;2023-02-19T00:11:47;101466.09;;;11.13;94.22
63808;BME280;49961;43.970;22.868;2023-02-19T00:12:48;101535.69;;;11.59;94.59
63808;BME280;49961;43.970;22.868;2023-02-19T00:13:50;101526.50;;;11.62;94.68
63808;BME280;49961;43.970;22.868;2023-02-19T00:14:51;101396.44;;;10.74;94.69
63808;BME280;49961;43.970;22.868;2023-02-19T00:15:52;101533.28;;;11.61;95.41
63808;BME280;49961;43.970;22.868;2023-02-19T00:16:52;101533.66;;;11.63;95.56
63808;BME280;49961;43.970;22.868;2023-02-19T00:17:52;101542.69;;;11.67;95.80
63808;BME280;49961;43.970;22.868;2023-02-19T00:18:54;101531.91;;;11.72;95.55
63808;BME280;49961;43.970;22.868;2023-02-19T00:19:55;101541.34;;;11.78;95.04
63808;BME280;49961;43.970;22.868;2023-02-19T00:20:56;101543.25;;;11.85;94.64
63808;BME280;49961;43.970;22.868;2023-02-19T00:21:56;101459.53;;;11.30;94.21
63808;BME280;49961;43.970;22.868;2023-02-19T00:22:57;101541.44;;;11.98;93.86
63808;BME280;49961;43.970;22.868;2023-02-19T00:24:03;101547.69;;;12.05;92.94
63808;BME280;49961;43.970;22.868;2023-02-19T00:25:03;101545.13;;;12.18;92.03
63808;BME280;49961;43.970;22.868;2023-02-19T00:26:09;101551.94;;;12.13;91.71
63808;BME280;49961;43.970;22.868;2023-02-19T00:27:10;101541.50;;;12.21;91.50
63808;BME280;49961;43.970;22.868;2023-02-19T00:28:11;101546.53;;;12.29;90.38
63808;BME280;49961;43.970;22.868;2023-02-19T00:29:14;101542.91;;;12.32;90.13
63808;BME280;49961;43.970;22.868;2023-02-19T00:30:15;101536.28;;;12.26;90.15
63808;BME280;49961;43.970;22.868;2023-02-19T00:31:16;101544.06;;;12.35;89.72
63808;BME280;49961;43.970;22.868;2023-02-19T00:32:17;101433.22;;;11.68;89.26
63808;BME280;49961;43.970;22.868;2023-02-19T00:33:18;101535.59;;;12.42;88.48
63808;BME280;49961;43.970;22.868;2023-02-19T00:34:18;101541.00;;;12.52;88.28
63808;BME280;49961;43.970;22.868;2023-02-19T00:35:18;101537.75;;;12.54;87.44
63808;BME280;49961;43.970;22.868;2023-02-19T00:36:19;101486.22;;;12.03;87.62
63808;BME280;49961;43.970;22.868;2023-02-19T00:37:20;101532.69;;;12.49;87.08
63808;BME280;49961;43.970;22.868;2023-02-19T00:38:20;101544.06;;;12.58;86.73
63808;BME280;49961;43.970;22.868;2023-02-19T00:39:21;101548.84;;;12.57;86.54
63808;BME280;49961;43.970;22.868;2023-02-19T00:40:21;101553.19;;;12.58;86.42
63808;BME280;49961;43.970;22.868;2023-02-19T00:41:22;101559.97;;;12.57;86.72
63808;BME280;49961;43.970;22.868;2023-02-19T00:42:23;101564.00;;;12.53;87.05
63808;BME280;49961;43.970;22.868;2023-02-19T00:43:25;101560.06;;;12.50;87.74
63808;BME280;49961;43.970;22.868;2023-02-19T00:44:25;101558.81;;;12.55;87.60
63808;BME280;49961;43.970;22.868;2023-02-19T00:45:26;101504.56;;;12.24;87.44
63808;BME280;49961;43.970;22.868;2023-02-19T00:46:29;101566.38;;;12.54;87.38
63808;BME280;49961;43.970;22.868;2023-02-19T00:47:30;101560.38;;;12.56;87.07
63808;BME280;49961;43.970;22.868;2023-02-19T00:48:30;101563.16;;;12.56;87.13
63808;BME280;49961;43.970;22.868;2023-02-19T00:49:30;101551.72;;;12.50;86.55
63808;BME280;49961;43.970;22.868;2023-02-19T00:50:31;101564.31;;;12.58;86.45
63808;BME280;49961;43.970;22.868;2023-02-19T00:51:34;101504.16;;;12.22;86.39
63808;BME280;49961;43.970;22.868;2023-02-19T00:52:35;101565.53;;;12.57;86.19
63808;BME280;49961;43.970;22.868;2023-02-19T00:53:35;101567.19;;;12.51;86.34
63808;BME280;49961;43.970;22.868;2023-02-19T00:54:36;101568.34;;;12.54;86.85
63808;BME280;49961;43.970;22.868;2023-02-19T00:55:36;101566.84;;;12.49;86.65
63808;BME280;49961;43.970;22.868;2023-02-19T00:56:37;101552.75;;;12.37;86.32
63808;BME280;49961;43.970;22.868;2023-02-19T00:57:37;101570.44;;;12.46;86.85
63808;BME280;49961;43.970;22.868;2023-02-19T00:58:38;101566.50;;;12.47;86.87
63808;BME280;49961;43.970;22.868;2023-02-19T00:59:38;101560.19;;;12.43;86.92
63808;BME280;49961;43.970;22.868;2023-02-19T01:00:39;101567.81;;;12.39;87.30
63808;BME280;49961;43.970;22.868;2023-02-19T01:01:39;101568.66;;;12.36;87.16
63808;BME280;49961;43.970;22.868;2023-02-19T01:02:40;101576.00;;;12.46;86.84
63808;BME280;49961;43.970;22.868;2023-02-19T01:03:41;101574.09;;;12.43;86.65
63808;BME280;49961;43.970;22.868;2023-02-19T01:04:41;101566.91;;;12.46;86.28
63808;BME280;49961;43.970;22.868;2023-02-19T01:05:42;101385.44;;;11.27;86.06
63808;BME280;49961;43.970;22.868;2023-02-19T01:06:42;101432.56;;;11.60;85.94
63808;BME280;49961;43.970;22.868;2023-02-19T01:07:42;101567.31;;;12.44;85.77
63808;BME280;49961;43.970;22.868;2023-02-19T01:08:43;101530.44;;;12.17;86.05
63808;BME280;49961;43.970;22.868;2023-02-19T01:09:44;101568.59;;;12.40;86.10
63808;BME280;49961;43.970;22.868;2023-02-19T01:10:45;101567.38;;;12.41;86.08
63808;BME280;49961;43.970;22.868;2023-02-19T01:11:46;101567.75;;;12.43;86.03
63808;BME280;49961;43.970;22.868;2023-02-19T01:12:46;101538.72;;;12.21;86.02
63808;BME280;49961;43.970;22.868;2023-02-19T01:13:47;101530.94;;;12.12;86.07
63808;BME280;49961;43.970;22.868;2023-02-19T01:14:47;101557.16;;;12.34;86.07
63808;BME280;49961;43.970;22.868;2023-02-19T01:15:48;101552.09;;;12.29;85.97
63808;BME280;49961;43.970;22.868;2023-02-19T01:16:48;101561.81;;;12.41;85.93
63808;BME280;49961;43.970;22.868;2023-02-19T01:17:48;101566.53;;;12.44;85.62
63808;BME280;49961;43.970;22.868;2023-02-19T01:18:49;101555.84;;;12.42;85.18
63808;BME280;49961;43.970;22.868;2023-02-19T01:19:50;101556.63;;;12.43;85.53
63808;BME280;49961;43.970;22.868;2023-02-19T01:20:50;101557.41;;;12.43;85.06
63808;BME280;49961;43.970;22.868;2023-02-19T01:21:51;101557.41;;;12.43;84.88
63808;BME280;49961;43.970;22.868;2023-02-19T01:22:52;101548.13;;;12.53;83.84
63808;BME280;49961;43.970;22.868;2023-02-19T01:23:53;101451.53;;;11.88;83.58
63808;BME280;49961;43.970;22.868;2023-02-19T01:24:54;101481.00;;;12.05;83.52
63808;BME280;49961;43.970;22.868;2023-02-19T01:25:54;101547.38;;;12.49;83.63
63808;BME280;49961;43.970;22.868;2023-02-19T01:26:55;101551.31;;;12.52;83.65
63808;BME280;49961;43.970;22.868;2023-02-19T01:27:55;101554.88;;;12.52;83.39
63808;BME280;49961;43.970;22.868;2023-02-19T01:28:56;101367.00;;;11.40;82.62
63808;BME280;49961;43.970;22.868;2023-02-19T01:29:57;101524.19;;;12.36;82.50
63808;BME280;49961;43.970;22.868;2023-02-19T01:31:02;101546.59;;;12.49;82.69
63808;BME280;49961;43.970;22.868;2023-02-19T01:32:03;101570.78;;;12.52;82.66
63808;BME280;49961;43.970;22.868;2023-02-19T01:33:07;101553.28;;;12.51;82.35
63808;BME280;49961;43.970;22.868;2023-02-19T01:34:09;101502.94;;;12.23;82.40
63808;BME280;49961;43.970;22.868;2023-02-19T01:35:10;101548.03;;;12.57;81.72
63808;BME280;49961;43.970;22.868;2023-02-19T01:36:10;101466.09;;;11.96;81.20
63808;BME280;49961;43.970;22.868;2023-02-19T01:37:10;101543.31;;;12.54;81.15
63808;BME280;49961;43.970;22.868;2023-02-19T01:38:11;101542.06;;;12.58;80.97
63808;BME280;49961;43.970;22.868;2023-02-19T01:39:12;101542.97;;;12.52;80.73
63808;BME280;49961;43.970;22.868;2023-02-19T01:40:12;101490.28;;;12.22;80.39
63808;BME280;49961;43.970;22.868;2023-02-19T01:41:15;101541.75;;;12.53;80.56
63808;BME280;49961;43.970;22.868;2023-02-19T01:42:16;101543.38;;;12.50;80.72
63808;BME280;49961;43.970;22.868;2023-02-19T01:43:16;101545.41;;;12.50;80.82
63808;BME280;49961;43.970;22.868;2023-02-19T01:46:43;101485.59;;;12.15;80.17
63808;BME280;49961;43.970;22.868;2023-02-19T01:47:45;101547.25;;;12.56;79.78
63808;BME280;49961;43.970;22.868;2023-02-19T01:48:46;101434.13;;;11.84;79.33
63808;BME280;49961;43.970;22.868;2023-02-19T01:49:50;101556.38;;;12.57;79.31
63808;BME280;49961;43.970;22.868;2023-02-19T01:53:02;101560.81;;;12.54;79.49
63808;BME280;49961;43.970;22.868;2023-02-19T01:54:07;101558.09;;;12.51;79.41
63808;BME280;49961;43.970;22.868;2023-02-19T01:55:11;101562.84;;;12.50;79.59
63808;BME280;49961;43.970;22.868;2023-02-19T01:56:13;101554.03;;;12.32;79.45
63808;BME280;49961;43.970;22.868;2023-02-19T01:57:18;101561.28;;;12.49;79.31
63808;BME280;49961;43.970;22.868;2023-02-19T01:58:23;101559.78;;;12.45;79.37
63808;BME280;49961;43.970;22.868;2023-02-19T01:59:25;101553.63;;;12.34;79.87
63808;BME280;49961;43.970;22.868;2023-02-19T02:00:26;101551.19;;;12.36;80.20
63808;BME280;49961;43.970;22.868;2023-02-19T02:01:26;101539.19;;;12.16;80.50
63808;BME280;49961;43.970;22.868;2023-02-19T02:02:27;101559.88;;;12.38;80.53
63808;BME280;49961;43.970;22.868;2023-02-19T02:03:28;101396.78;;;11.36;80.57
63808;BME280;49961;43.970;22.868;2023-02-19T02:04:30;101477.28;;;11.92;80.58
63808;BME280;49961;43.970;22.868;2023-02-19T02:05:54;101553.63;;;12.34;80.88
63808;BME280;49961;43.970;22.868;2023-02-19T02:06:57;101555.28;;;12.28;81.76
63808;BME280;49961;43.970;22.868;2023-02-19T02:08:01;101548.47;;;12.32;81.69
63808;BME280;49961;43.970;22.868;2023-02-19T02:09:26;101547.25;;;12.33;82.15
63808;BME280;49961;43.970;22.868;2023-02-19T02:10:46;101550.94;;;12.27;82.37
63808;BME280;49961;43.970;22.868;2023-02-19T02:11:51;101546.91;;;12.31;82.37
63808;BME280;49961;43.970;22.868;2023-02-19T02:12:55;101540.97;;;12.29;82.68
63808;BME280;49961;43.970;22.868;2023-02-19T02:13:57;101542.13;;;12.32;82.89
63808;BME280;49961;43.970;22.868;2023-02-19T02:14:57;101549.22;;;12.36;83.21
63808;BME280;49961;43.970;22.868;2023-02-19T02:17:27;101545.09;;;12.44;83.48
63808;BME280;49961;43.970;22.868;2023-02-19T02:23:08;101540.41;;;12.84;81.84
63808;BME280;49961;43.970;22.868;2023-02-19T02:25:39;101533.81;;;12.97;80.91
63808;BME280;49961;43.970;22.868;2023-02-19T02:28:22;101540.50;;;13.00;80.32
63808;BME280;49961;43.970;22.868;2023-02-19T02:31:16;101539.97;;;13.08;79.25
63808;BME280;49961;43.970;22.868;2023-02-19T02:32:20;101544.25;;;13.13;78.98
63808;BME280;49961;43.970;22.868;2023-02-19T02:34:29;101532.69;;;13.14;77.82
63808;BME280;49961;43.970;22.868;2023-02-19T02:35:39;101541.19;;;13.27;77.01
63808;BME280;49961;43.970;22.868;2023-02-19T02:36:45;101542.38;;;13.26;76.56
63808;BME280;49961;43.970;22.868;2023-02-19T02:37:48;101493.00;;;12.91;76.59
63808;BME280;49961;43.970;22.868;2023-02-19T02:38:50;101355.72;;;12.00;76.32
63808;BME280;49961;43.970;22.868;2023-02-19T02:39:53;101450.16;;;12.65;76.40
63808;BME280;49961;43.970;22.868;2023-02-19T02:40:56;101545.53;;;13.28;76.33
63808;BME280;49961;43.970;22.868;2023-02-19T02:41:58;101476.91;;;12.79;75.81
63808;BME280;49961;43.970;22.868;2023-02-19T02:43:17;101553.75;;;13.35;75.50
63808;BME280;49961;43.970;22.868;2023-02-19T02:44:18;101561.81;;;13.29;75.36
63808;BME280;49961;43.970;22.868;2023-02-19T02:46:35;101563.09;;;13.25;75.83
63808;BME280;49961;43.970;22.868;2023-02-19T02:47:57;101570.28;;;13.22;76.03
63808;BME280;49961;43.970;22.868;2023-02-19T02:49:02;101410.59;;;12.15;75.99
63808;BME280;49961;43.970;22.868;2023-02-19T02:50:04;101572.56;;;13.27;75.69
63808;BME280;49961;43.970;22.868;2023-02-19T02:52:21;101579.28;;;13.30;75.76
63808;BME280;49961;43.970;22.868;2023-02-19T02:53:50;101574.53;;;13.30;75.76
63808;BME280;49961;43.970;22.868;2023-02-19T02:55:10;101579.28;;;13.30;75.98
63808;BME280;49961;43.970;22.868;2023-02-19T02:56:12;101587.56;;;13.33;76.06
63808;BME280;49961;43.970;22.868;2023-02-19T02:57:15;101509.88;;;12.80;75.93
63808;BME280;49961;43.970;22.868;2023-02-19T02:58:16;101522.94;;;12.83;76.17
63808;BME280;49961;43.970;22.868;2023-02-19T02:59:21;101605.41;;;13.36;76.51
63808;BME280;49961;43.970;22.868;2023-02-19T03:00:23;101595.88;;;13.37;76.26
63808;BME280;49961;43.970;22.868;2023-02-19T03:01:49;101594.28;;;13.36;76.54
63808;BME280;49961;43.970;22.868;2023-02-19T03:03:11;101604.00;;;13.28;77.01
63808;BME280;49961;43.970;22.868;2023-02-19T03:04:22;101600.84;;;13.26;77.50
63808;BME280;49961;43.970;22.868;2023-02-19T03:05:24;101496.50;;;12.52;77.79
63808;BME280;49961;43.970;22.868;2023-02-19T03:06:46;101612.41;;;13.24;77.99
63808;BME280;49961;43.970;22.868;2023-02-19T03:07:55;101609.63;;;13.24;78.13
63808;BME280;49961;43.970;22.868;2023-02-19T03:09:10;101613.56;;;13.27;78.05
63808;BME280;49961;43.970;22.868;2023-02-19T03:10:18;101457.59;;;12.29;77.99
63808;BME280;49961;43.970;22.868;2023-02-19T03:11:20;101613.13;;;13.28;78.39
63808;BME280;49961;43.970;22.868;2023-02-19T03:12:39;101619.56;;;13.25;78.45
63808;BME280;49961;43.970;22.868;2023-02-19T03:14:06;101617.50;;;13.29;78.90
63808;BME280;49961;43.970;22.868;2023-02-19T03:15:31;101615.13;;;13.28;79.10
63808;BME280;49961;43.970;22.868;2023-02-19T03:16:55;101611.78;;;13.17;79.94
63808;BME280;49961;43.970;22.868;2023-02-19T03:18:18;101623.09;;;13.26;80.53
63808;BME280;49961;43.970;22.868;2023-02-19T03:19:40;101631.41;;;13.29;80.78
63808;BME280;49961;43.970;22.868;2023-02-19T03:20:45;101601.19;;;13.08;81.03
63808;BME280;49961;43.970;22.868;2023-02-19T03:22:56;101626.69;;;13.26;81.59
63808;BME280;49961;43.970;22.868;2023-02-19T03:23:28;101601.38;;;12.98;82.38
63808;BME280;49961;43.970;22.868;2023-02-19T03:25:00;101631.53;;;13.22;82.46
63808;BME280;49961;43.970;22.868;2023-02-19T03:26:20;101621.25;;;13.19;82.74
63808;BME280;49961;43.970;22.868;2023-02-19T03:27:23;101632.47;;;13.16;82.94
63808;BME280;49961;43.970;22.868;2023-02-19T03:28:27;101630.38;;;13.20;83.17
63808;BME280;49961;43.970;22.868;2023-02-19T03:29:49;101633.31;;;13.13;83.79
63808;BME280;49961;43.970;22.868;2023-02-19T03:30:53;101632.97;;;13.11;84.02
63808;BME280;49961;43.970;22.868;2023-02-19T03:31:58;101630.22;;;13.07;84.16
63808;BME280;49961;43.970;22.868;2023-02-19T03:33:09;101630.88;;;13.15;83.82
63808;BME280;49961;43.970;22.868;2023-02-19T03:34:15;101637.25;;;13.15;83.67
63808;BME280;49961;43.970;22.868;2023-02-19T03:35:20;101635.66;;;13.14;83.57
63808;BME280;49961;43.970;22.868;2023-02-19T03:36:22;101555.56;;;12.60;83.50
63808;BME280;49961;43.970;22.868;2023-02-19T03:37:32;101643.63;;;13.12;83.47
63808;BME280;49961;43.970;22.868;2023-02-19T03:38:41;101637.31;;;13.12;83.46
63808;BME280;49961;43.970;22.868;2023-02-19T03:39:43;101641.09;;;13.21;83.23
63808;BME280;49961;43.970;22.868;2023-02-19T03:40:58;101497.72;;;12.28;83.06
63808;BME280;49961;43.970;22.868;2023-02-19T03:42:14;101569.31;;;12.67;83.23
63808;BME280;49961;43.970;22.868;2023-02-19T03:43:22;101638.63;;;13.04;84.42
63808;BME280;49961;43.970;22.868;2023-02-19T03:45:04;101649.34;;;13.05;84.73
63808;BME280;49961;43.970;22.868;2023-02-19T03:46:12;101660.13;;;13.03;85.04
63808;BME280;49961;43.970;22.868;2023-02-19T03:47:18;101655.81;;;12.99;85.35
63808;BME280;49961;43.970;22.868;2023-02-19T03:49:44;101665.38;;;12.98;85.51
63808;BME280;49961;43.970;22.868;2023-02-19T03:51:17;101662.25;;;12.92;85.83
63808;BME280;49961;43.970;22.868;2023-02-19T03:53:46;101663.88;;;12.90;86.25
63808;BME280;49961;43.970;22.868;2023-02-19T03:56:13;101668.19;;;12.94;86.18
63808;BME280;49961;43.970;22.868;2023-02-19T03:57:20;101671.03;;;12.91;86.27
63808;BME280;49961;43.970;22.868;2023-02-19T03:58:39;101672.34;;;12.83;86.68
63808;BME280;49961;43.970;22.868;2023-02-19T03:59:51;101604.41;;;12.34;87.25
63808;BME280;49961;43.970;22.868;2023-02-19T04:02:32;101677.31;;;12.72;88.26
63808;BME280;49961;43.970;22.868;2023-02-19T04:03:41;101675.81;;;12.67;88.97
63808;BME280;49961;43.970;22.868;2023-02-19T04:04:49;101650.59;;;12.51;89.22
63808;BME280;49961;43.970;22.868;2023-02-19T04:05:57;101654.84;;;12.36;89.33
63808;BME280;49961;43.970;22.868;2023-02-19T04:06:59;101465.81;;;11.34;89.87
63808;BME280;49961;43.970;22.868;2023-02-19T04:08:05;101668.13;;;12.75;89.72
63808;BME280;49961;43.970;22.868;2023-02-19T04:09:08;101672.16;;;12.70;89.96
63808;BME280;49961;43.970;22.868;2023-02-19T04:10:12;101672.22;;;12.67;89.97
63808;BME280;49961;43.970;22.868;2023-02-19T04:11:14;101674.94;;;12.70;89.91
63808;BME280;49961;43.970;22.868;2023-02-19T04:12:16;101673.06;;;12.64;90.36
63808;BME280;49961;43.970;22.868;2023-02-19T04:13:21;101577.22;;;11.96;90.82
63808;BME280;49961;43.970;22.868;2023-02-19T04:14:28;101688.28;;;12.56;91.81
63808;BME280;49961;43.970;22.868;2023-02-19T04:15:32;101642.50;;;12.37;92.13
63808;BME280;49961;43.970;22.868;2023-02-19T04:16:35;101673.19;;;12.57;92.54
63808;BME280;49961;43.970;22.868;2023-02-19T04:17:41;101670.03;;;12.55;92.66
63808;BME280;49961;43.970;22.868;2023-02-19T04:18:46;101664.91;;;12.53;93.49
63808;BME280;49961;43.970;22.868;2023-02-19T04:19:49;101651.56;;;12.41;94.29
63808;BME280;49961;43.970;22.868;2023-02-19T04:20:51;101546.28;;;11.67;94.94
63808;BME280;49961;43.970;22.868;2023-02-19T04:21:53;101674.13;;;12.47;95.26
63808;BME280;49961;43.970;22.868;2023-02-19T04:22:55;101664.69;;;12.41;95.55
63808;BME280;49961;43.970;22.868;2023-02-19T04:24:00;101666.59;;;12.44;96.31
63808;BME280;49961;43.970;22.868;2023-02-19T04:25:02;101658.38;;;12.37;96.93
63808;BME280;49961;43.970;22.868;2023-02-19T04:26:03;101667.06;;;12.39;97.28
63808;BME280;49961;43.970;22.868;2023-02-19T04:27:05;101661.97;;;12.37;97.62
63808;BME280;49961;43.970;22.868;2023-02-19T04:28:07;101664.28;;;12.42;98.05
63808;BME280;49961;43.970;22.868;2023-02-19T04:29:07;101659.94;;;12.38;98.05
63808;BME280;49961;43.970;22.868;2023-02-19T04:30:11;101654.09;;;12.32;98.78
63808;BME280;49961;43.970;22.868;2023-02-19T04:31:12;101590.94;;;11.80;99.10
63808;BME280;49961;43.970;22.868;2023-02-19T04:32:13;101642.91;;;12.09;99.61
63808;BME280;49961;43.970;22.868;2023-02-19T04:33:13;101656.03;;;12.05;99.88
63808;BME280;49961;43.970;22.868;2023-02-19T04:34:14;101666.63;;;12.17;100.00
63808;BME280;49961;43.970;22.868;2023-02-19T04:35:14;101658.00;;;12.08;100.00
63808;BME280;49961;43.970;22.868;2023-02-19T04:36:15;101658.28;;;12.17;100.00
63808;BME280;49961;43.970;22.868;2023-02-19T04:37:15;101661.47;;;12.16;100.00
63808;BME280;49961;43.970;22.868;2023-02-19T04:38:16;101563.94;;;11.50;100.00
63808;BME280;49961;43.970;22.868;2023-02-19T04:39:16;101654.34;;;12.15;100.00
63808;BME280;49961;43.970;22.868;2023-02-19T04:40:17;101566.31;;;11.48;100.00
63808;BME280;49961;43.970;22.868;2023-02-19T04:41:17;101541.53;;;11.34;100.00
63808;BME280;49961;43.970;22.868;2023-02-19T04:42:18;101653.25;;;12.09;100.00
63808;BME280;49961;43.970;22.868;2023-02-19T04:43:19;101634.75;;;11.95;100.00
63808;BME280;49961;43.970;22.868;2023-02-19T04:44:19;101642.41;;;11.88;100.00
63808;BME280;49961;43.970;22.868;2023-02-19T04:45:20;101487.63;;;11.02;100.00
63808;BME280;49961;43.970;22.868;2023-02-19T04:46:20;101511.13;;;11.24;100.00
63808;BME280;49961;43.970;22.868;2023-02-19T04:47:21;101648.09;;;12.07;100.00
63808;BME280;49961;43.970;22.868;2023-02-19T04:48:21;101645.72;;;12.06;100.00
63808;BME280;49961;43.970;22.868;2023-02-19T04:49:22;101658.50;;;12.00;100.00
63808;BME280;49961;43.970;22.868;2023-02-19T04:50:22;101648.56;;;12.02;100.00
63808;BME280;49961;43.970;22.868;2023-02-19T04:51:23;101644.91;;;12.09;100.00
63808;BME280;49961;43.970;22.868;2023-02-19T04:52:23;101633.09;;;12.01;100.00
63808;BME280;49961;43.970;22.868;2023-02-19T04:53:23;101651.28;;;12.06;100.00
63808;BME280;49961;43.970;22.868;2023-02-19T04:54:24;101636.41;;;11.93;100.00
63808;BME280;49961;43.970;22.868;2023-02-19T04:55:24;101652.38;;;12.12;100.00
63808;BME280;49961;43.970;22.868;2023-02-19T04:56:25;101657.94;;;12.12;100.00
63808;BME280;49961;43.970;22.868;2023-02-19T04:57:25;101650.81;;;12.11;100.00
63808;BME280;49961;43.970;22.868;2023-02-19T04:58:26;101653.53;;;12.14;100.00
63808;BME280;49961;43.970;22.868;2023-02-19T04:59:26;101659.50;;;12.13;100.00
63808;BME280;49961;43.970;22.868;2023-02-19T05:00:27;101660.72;;;12.12;100.00
63808;BME280;49961;43.970;22.868;2023-02-19T05:01:27;101661.13;;;12.14;100.00
63808;BME280;49961;43.970;22.868;2023-02-19T05:02:28;101666.63;;;12.17;100.00
63808;BME280;49961;43.970;22.868;2023-02-19T05:03:28;101544.69;;;11.36;100.00
63808;BME280;49961;43.970;22.868;2023-02-19T05:04:29;101676.63;;;12.11;100.00
63808;BME280;49961;43.970;22.868;2023-02-19T05:05:29;101670.72;;;12.06;100.00
63808;BME280;49961;43.970;22.868;2023-02-19T05:06:30;101656.66;;;11.90;100.00
63808;BME280;49961;43.970;22.868;2023-02-19T05:07:30;101669.53;;;12.07;100.00
63808;BME280;49961;43.970;22.868;2023-02-19T05:08:31;101673.88;;;12.08;100.00
63808;BME280;49961;43.970;22.868;2023-02-19T05:09:31;101680.22;;;12.08;100.00
63808;BME280;49961;43.970;22.868;2023-02-19T05:10:32;101679.88;;;12.03;100.00
63808;BME280;49961;43.970;22.868;2023-02-19T05:11:32;101679.53;;;12.01;100.00
63808;BME280;49961;43.970;22.868;2023-02-19T05:12:33;101683.88;;;12.02;100.00
63808;BME280;49961;43.970;22.868;2023-02-19T05:13:33;101658.28;;;11.87;100.00
63808;BME280;49961;43.970;22.868;2023-02-19T05:14:34;101684.63;;;12.06;100.00
63808;BME280;49961;43.970;22.868;2023-02-19T05:15:34;101681.50;;;12.00;100.00
63808;BME280;49961;43.970;22.868;2023-02-19T05:16:35;101689.03;;;12.03;100.00
63808;BME280;49961;43.970;22.868;2023-02-19T05:17:35;101669.75;;;11.89;100.00
63808;BME280;49961;43.970;22.868;2023-02-19T05:18:36;101691.81;;;12.03;100.00
63808;BME280;49961;43.970;22.868;2023-02-19T05:19:37;101685.44;;;12.03;100.00
63808;BME280;49961;43.970;22.868;2023-02-19T05:20:37;101693.47;;;11.97;100.00
63808;BME280;49961;43.970;22.868;2023-02-19T05:21:38;101599.44;;;11.32;100.00
63808;BME280;49961;43.970;22.868;2023-02-19T05:22:39;101654.94;;;11.69;100.00
63808;BME280;49961;43.970;22.868;2023-02-19T05:23:40;101694.22;;;12.01;100.00
63808;BME280;49961;43.970;22.868;2023-02-19T05:24:40;101687.88;;;12.01;100.00
63808;BME280;49961;43.970;22.868;2023-02-19T05:25:41;101695.78;;;12.02;100.00
63808;BME280;49961;43.970;22.868;2023-02-19T05:26:41;101689.78;;;12.07;100.00
63808;BME280;49961;43.970;22.868;2023-02-19T05:27:42;101689.47;;;11.98;100.00
63808;BME280;49961;43.970;22.868;2023-02-19T05:28:47;101692.72;;;11.93;100.00
63808;BME280;49961;43.970;22.868;2023-02-19T05:29:48;101685.56;;;11.96;100.00
63808;BME280;49961;43.970;22.868;2023-02-19T05:30:50;101692.69;;;11.97;100.00
63808;BME280;49961;43.970;22.868;2023-02-19T05:31:51;101687.97;;;11.94;100.00
63808;BME280;49961;43.970;22.868;2023-02-19T05:32:52;101687.06;;;12.00;100.00
63808;BME280;49961;43.970;22.868;2023-02-19T05:33:55;101634.38;;;11.63;100.00
63808;BME280;49961;43.970;22.868;2023-02-19T05:34:56;101577.31;;;11.25;100.00
63808;BME280;49961;43.970;22.868;2023-02-19T05:35:56;101684.03;;;11.91;100.00
63808;BME280;49961;43.970;22.868;2023-02-19T05:36:57;101668.28;;;11.81;100.00
63808;BME280;49961;43.970;22.868;2023-02-19T05:37:57;101686.41;;;11.93;100.00
63808;BME280;49961;43.970;22.868;2023-02-19T05:38:58;101625.03;;;11.47;100.00
63808;BME280;49961;43.970;22.868;2023-02-19T05:39:58;101693.88;;;11.96;100.00
63808;BME280;49961;43.970;22.868;2023-02-19T05:41:26;101698.28;;;11.93;100.00
63808;BME280;49961;43.970;22.868;2023-02-19T05:42:27;101681.56;;;11.97;100.00
63808;BME280;49961;43.970;22.868;2023-02-19T05:43:27;101696.94;;;12.05;100.00
63808;BME280;49961;43.970;22.868;2023-02-19T05:44:27;101690.97;;;12.06;100.00
63808;BME280;49961;43.970;22.868;2023-02-19T05:45:28;101670.19;;;11.88;100.00
63808;BME280;49961;43.970;22.868;2023-02-19T05:46:29;101683.53;;;12.00;100.00
63808;BME280;49961;43.970;22.868;2023-02-19T05:47:30;101698.09;;;12.07;100.00
63808;BME280;49961;43.970;22.868;2023-02-19T05:48:30;101705.22;;;12.08;100.00
63808;BME280;49961;43.970;22.868;2023-02-19T05:49:31;101581.09;;;11.38;100.00
63808;BME280;49961;43.970;22.868;2023-02-19T05:50:32;101698.41;;;12.16;100.00
63808;BME280;49961;43.970;22.868;2023-02-19T05:51:33;101697.19;;;12.17;100.00
63808;BME280;49961;43.970;22.868;2023-02-19T05:52:33;101676.63;;;12.11;100.00
63808;BME280;49961;43.970;22.868;2023-02-19T05:53:34;101700.25;;;12.26;100.00